createdAt,value
2023-08-28T00:01:29.365Z,98529.00
2023-08-28T00:04:31.970Z,98531.53
2023-08-28T00:07:34.974Z,98526.81
2023-08-28T00:10:37.058Z,98525.78
2023-08-28T00:13:38.969Z,98526.41
2023-08-28T00:16:40.912Z,98524.44
2023-08-28T00:19:42.832Z,98522.41
2023-08-28T00:22:44.703Z,98519.72
2023-08-28T00:25:46.576Z,98523.19
2023-08-28T00:28:48.714Z,98515.16
2023-08-28T00:31:50.762Z,98521.84
2023-08-28T00:34:53.404Z,98518.00
2023-08-28T00:37:55.530Z,98515.78
2023-08-28T00:40:57.389Z,98516.00
2023-08-28T00:43:59.355Z,98517.19
2023-08-28T00:47:01.929Z,98522.06
2023-08-28T00:50:06.338Z,98527.81
2023-08-28T00:53:09.788Z,98520.94
2023-08-28T00:56:11.769Z,98522.47
2023-08-28T00:59:16.246Z,98521.69
2023-08-28T01:02:18.152Z,98522.53
2023-08-28T01:05:24.101Z,98522.13
2023-08-28T01:08:46.503Z,98519.72
2023-08-28T01:12:08.031Z,98518.69
2023-08-28T01:15:13.211Z,98510.78
2023-08-28T01:18:15.987Z,98510.19
2023-08-28T01:21:18.873Z,98512.81
2023-08-28T01:24:22.763Z,98514.41
2023-08-28T01:27:25.006Z,98512.81
2023-08-28T01:30:28.215Z,98516.06
2023-08-28T01:33:32.045Z,98511.00
2023-08-28T01:36:49.197Z,98513.44
2023-08-28T01:39:53.245Z,98518.47
2023-08-28T01:43:14.187Z,98529.81
2023-08-28T01:46:16.811Z,98528.63
2023-08-28T01:49:18.798Z,98533.47
2023-08-28T01:52:20.980Z,98528.63
2023-08-28T01:55:45.606Z,98529.41
2023-08-28T01:58:58.289Z,98531.59
2023-08-28T02:02:00.491Z,98527.56
2023-08-28T02:05:02.335Z,98531.38
2023-08-28T02:08:05.324Z,98525.13
2023-08-28T02:11:07.644Z,98529.59
2023-08-28T02:14:09.832Z,98527.72
2023-08-28T02:17:12.055Z,98531.16
2023-08-28T02:20:14.210Z,98526.69
2023-08-28T02:23:16.413Z,98527.47
2023-08-28T02:26:18.593Z,98532.72
2023-08-28T02:29:20.412Z,98533.78
2023-08-28T02:32:22.420Z,98530.69
2023-08-28T02:35:25.306Z,98526.22
2023-08-28T02:38:27.248Z,98517.31
2023-08-28T02:41:29.494Z,98517.28
2023-08-28T02:44:31.358Z,98518.50
2023-08-28T02:47:33.537Z,98517.19
2023-08-28T02:50:36.389Z,98522.84
2023-08-28T02:53:38.322Z,98525.34
2023-08-28T02:56:40.686Z,98525.44
2023-08-28T02:59:42.798Z,98528.66
2023-08-28T03:02:45.255Z,98537.09
2023-08-28T03:05:47.900Z,98531.94
2023-08-28T03:08:50.088Z,98539.78
2023-08-28T03:11:52.038Z,98535.94
2023-08-28T03:14:53.954Z,98536.28
2023-08-28T03:17:56.014Z,98539.28
2023-08-28T03:20:58.005Z,98540.91
2023-08-28T03:23:59.947Z,98539.47
2023-08-28T03:30:46.132Z,98537.41
2023-08-28T03:33:47.958Z,98532.59
2023-08-28T03:36:49.827Z,98535.03
2023-08-28T03:39:51.739Z,98531.81
2023-08-28T03:42:53.659Z,98538.47
2023-08-28T03:45:55.583Z,98538.47
2023-08-28T03:48:57.471Z,98538.09
2023-08-28T03:52:00.651Z,98541.53
2023-08-28T03:55:02.829Z,98541.72
2023-08-28T03:58:05.338Z,98544.34
2023-08-28T04:01:07.306Z,98553.47
2023-08-28T04:04:09.299Z,98556.38
2023-08-28T04:07:24.583Z,98557.38
2023-08-28T04:10:29.880Z,98561.22
2023-08-28T04:13:32.251Z,98561.31
2023-08-28T04:16:34.196Z,98565.78
2023-08-28T04:19:37.868Z,98564.44
2023-08-28T04:22:44.565Z,98553.13
2023-08-28T04:25:47.833Z,98560.13
2023-08-28T04:28:50.151Z,98563.00
2023-08-28T04:31:52.042Z,98559.56
2023-08-28T04:34:53.990Z,98559.31
2023-08-28T04:37:56.017Z,98564.22
2023-08-28T04:40:57.924Z,98560.22
2023-08-28T04:44:00.178Z,98560.06
2023-08-28T04:47:02.281Z,98564.41
2023-08-28T04:50:04.407Z,98557.91
2023-08-28T04:53:10.666Z,98569.06
2023-08-28T04:56:13.062Z,98564.41
2023-08-28T04:59:15.451Z,98565.59
2023-08-28T05:02:17.338Z,98558.78
2023-08-28T05:05:19.261Z,98560.00
2023-08-28T05:08:21.677Z,98561.84
2023-08-28T05:11:23.604Z,98559.00
2023-08-28T05:14:25.550Z,98572.97
2023-08-28T05:17:27.441Z,98571.34
2023-08-28T05:20:29.904Z,98577.44
2023-08-28T05:23:31.908Z,98577.03
2023-08-28T05:26:33.927Z,98580.47
2023-08-28T05:29:35.785Z,98573.19
2023-08-28T05:32:37.716Z,98571.97
2023-08-28T05:35:39.983Z,98574.00
2023-08-28T05:38:41.913Z,98574.78
2023-08-28T05:41:43.891Z,98573.59
2023-08-28T05:44:46.577Z,98565.84
2023-08-28T05:47:48.835Z,98569.06
2023-08-28T05:50:51.445Z,98560.28
2023-08-28T05:53:53.400Z,98569.28
2023-08-28T05:56:55.370Z,98557.91
2023-08-28T05:59:58.064Z,98556.28
2023-08-28T06:03:00.677Z,98561.72
2023-08-28T06:06:04.780Z,98572.44
2023-08-28T06:09:08.870Z,98569.97
2023-08-28T06:12:11.287Z,98575.97
2023-08-28T06:15:16.163Z,98579.63
2023-08-28T06:18:18.024Z,98581.47
2023-08-28T06:21:20.287Z,98572.06
2023-08-28T06:24:22.403Z,98585.50
2023-08-28T06:27:24.288Z,98577.94
2023-08-28T06:30:26.226Z,98574.03
2023-08-28T06:33:29.388Z,98581.31
2023-08-28T06:36:31.944Z,98575.28
2023-08-28T06:39:33.840Z,98581.34
2023-08-28T06:42:36.887Z,98581.63
2023-08-28T06:45:42.639Z,98579.00
2023-08-28T06:48:49.282Z,98572.31
2023-08-28T06:51:51.190Z,98571.09
2023-08-28T06:54:53.057Z,98570.41
2023-08-28T06:57:55.264Z,98576.72
2023-08-28T07:00:57.288Z,98581.53
2023-08-28T07:03:59.181Z,98578.22
2023-08-28T07:07:01.130Z,98572.00
2023-08-28T07:10:05.442Z,98574.31
2023-08-28T07:13:07.460Z,98575.00
2023-08-28T07:16:09.427Z,98574.22
2023-08-28T07:19:11.495Z,98565.72
2023-08-28T07:22:13.418Z,98573.31
2023-08-28T07:25:17.492Z,98577.22
2023-08-28T07:28:20.577Z,98574.31
2023-08-28T07:31:23.500Z,98574.28
2023-08-28T07:34:25.383Z,98579.88
2023-08-28T07:37:30.691Z,98575.44
2023-08-28T07:40:33.611Z,98567.66
2023-08-28T07:43:35.507Z,98561.72
2023-08-28T07:46:37.497Z,98557.31
2023-08-28T07:49:40.072Z,98559.25
2023-08-28T07:52:42.324Z,98559.59
2023-08-28T07:55:44.232Z,98564.75
2023-08-28T07:58:46.663Z,98562.72
2023-08-28T08:19:43.348Z,98549.72
2023-08-28T08:22:47.522Z,98544.75
2023-08-28T08:25:50.004Z,98544.41
2023-08-28T08:28:51.918Z,98533.53
2023-08-28T08:31:54.060Z,98525.47
2023-08-28T08:35:00.170Z,98521.28
2023-08-28T08:38:02.499Z,98528.00
2023-08-28T08:41:06.172Z,98523.41
2023-08-28T08:44:09.993Z,98521.09
2023-08-28T08:47:11.979Z,98524.38
2023-08-28T08:50:16.108Z,98522.63
2023-08-28T08:53:26.654Z,98518.13
2023-08-28T08:56:33.117Z,98513.72
2023-08-28T08:59:35.415Z,98517.50
2023-08-28T09:02:37.598Z,98511.38
2023-08-28T09:05:40.032Z,98504.00
2023-08-28T09:08:43.993Z,98505.56
2023-08-28T09:11:46.614Z,98499.31
2023-08-28T09:14:48.550Z,98492.63
2023-08-28T09:17:50.658Z,98491.84
2023-08-28T09:21:10.062Z,98482.69
2023-08-28T09:24:11.967Z,98478.97
2023-08-28T09:27:15.097Z,98474.56
2023-08-28T09:30:31.762Z,98464.25
2023-08-28T09:33:57.739Z,98468.50
2023-08-28T09:37:12.020Z,98465.06
2023-08-28T09:40:13.883Z,98461.56
2023-08-28T09:43:17.383Z,98462.13
2023-08-28T09:46:21.649Z,98461.13
2023-08-28T09:49:26.468Z,98453.66
2023-08-28T09:52:28.383Z,98437.91
2023-08-28T09:55:30.311Z,98441.09
2023-08-28T09:58:32.304Z,98429.31
2023-08-28T10:01:37.217Z,98430.66
2023-08-28T10:04:41.439Z,98424.75
2023-08-28T10:07:45.503Z,98420.19
2023-08-28T10:10:49.317Z,98416.19
2023-08-28T10:13:51.749Z,98415.56
2023-08-28T10:17:00.495Z,98412.09
2023-08-28T10:20:05.167Z,98411.81
2023-08-28T10:23:10.035Z,98403.34
2023-08-28T10:26:14.685Z,98406.53
2023-08-28T10:29:19.589Z,98403.50
2023-08-28T10:32:22.233Z,98396.66
2023-08-28T10:35:25.126Z,98384.41
2023-08-28T10:38:29.590Z,98377.75
2023-08-28T10:41:33.272Z,98382.44
2023-08-28T10:44:36.933Z,98368.22
2023-08-28T10:47:39.158Z,98368.47
2023-08-28T10:50:41.105Z,98364.88
2023-08-28T10:53:44.749Z,98368.41
2023-08-28T10:56:55.205Z,98361.97
2023-08-28T11:00:03.575Z,98363.47
2023-08-28T11:03:16.055Z,98366.97
2023-08-28T11:06:40.585Z,98363.25
2023-08-28T11:09:42.649Z,98355.50
2023-08-28T11:12:55.819Z,98347.50
2023-08-28T11:16:05.082Z,98348.75
2023-08-28T11:19:08.279Z,98341.03
2023-08-28T11:22:10.107Z,98341.34
2023-08-28T11:25:40.455Z,98331.22
2023-08-28T11:28:47.210Z,98319.53
2023-08-28T11:31:49.156Z,98323.16
2023-08-28T11:34:52.515Z,98310.19
2023-08-28T11:37:55.999Z,98313.19
2023-08-28T11:41:05.662Z,98309.78
2023-08-28T11:44:12.395Z,98300.38
2023-08-28T11:47:15.471Z,98300.06
2023-08-28T11:50:20.183Z,98299.94
2023-08-28T11:53:33.176Z,98293.78
2023-08-28T11:56:35.241Z,98295.00
2023-08-28T11:59:37.410Z,98292.78
2023-08-28T12:02:41.331Z,98284.78
2023-08-28T12:05:43.209Z,98287.63
2023-08-28T12:08:47.961Z,98279.31
2023-08-28T12:11:49.979Z,98279.66
2023-08-28T12:14:51.847Z,98276.16
2023-08-28T12:18:00.639Z,98276.94
2023-08-28T12:21:04.268Z,98276.44
2023-08-28T12:24:11.071Z,98268.47
2023-08-28T12:27:15.209Z,98269.59
2023-08-28T12:30:20.732Z,98270.41
2023-08-28T12:33:22.795Z,98258.56
2023-08-28T12:36:46.762Z,98255.16
2023-08-28T12:39:50.835Z,98265.56
2023-08-28T12:42:56.253Z,98252.66
2023-08-28T12:45:58.383Z,98256.44
2023-08-28T12:49:02.728Z,98249.25
2023-08-28T12:52:05.130Z,98249.47
2023-08-28T12:55:07.286Z,98250.28
2023-08-28T12:58:09.288Z,98261.19
2023-08-28T13:01:11.207Z,98259.03
2023-08-28T13:04:13.159Z,98252.75
2023-08-28T13:07:17.986Z,98250.13
2023-08-28T13:10:19.825Z,98244.31
2023-08-28T13:13:25.274Z,98241.78
2023-08-28T13:16:33.809Z,98239.03
2023-08-28T13:19:36.037Z,98228.53
2023-08-28T13:22:38.107Z,98224.28
2023-08-28T13:25:40.064Z,98219.25
2023-08-28T13:28:43.160Z,98208.19
2023-08-28T13:31:45.118Z,98201.91
2023-08-28T13:34:47.082Z,98209.34
2023-08-28T13:37:48.973Z,98203.75
2023-08-28T13:40:50.905Z,98190.75
2023-08-28T13:43:52.776Z,98198.00
2023-08-28T13:46:54.606Z,98197.25
2023-08-28T13:49:56.494Z,98195.19
2023-08-28T13:52:58.490Z,98193.13
2023-08-28T13:56:00.451Z,98188.38
2023-08-28T13:59:05.890Z,98183.13
2023-08-28T14:02:08.539Z,98183.97
2023-08-28T14:05:14.647Z,98186.97
2023-08-28T14:08:16.742Z,98191.56
2023-08-28T14:11:19.432Z,98186.47
2023-08-28T14:14:21.342Z,98178.69
2023-08-28T14:17:25.485Z,98182.19
2023-08-28T14:20:27.410Z,98169.34
2023-08-28T14:23:29.293Z,98177.09
2023-08-28T14:26:32.049Z,98174.31
2023-08-28T14:29:34.177Z,98171.63
2023-08-28T14:32:36.274Z,98167.38
2023-08-28T14:35:43.776Z,98170.72
2023-08-28T14:38:45.701Z,98171.03
2023-08-28T14:41:47.653Z,98152.91
2023-08-28T14:44:49.601Z,98153.41
2023-08-28T14:47:51.540Z,98146.97
2023-08-28T14:50:55.353Z,98154.25
2023-08-28T14:54:00.791Z,98160.59
2023-08-28T14:57:02.677Z,98149.34
2023-08-28T15:00:08.559Z,98153.88
2023-08-28T15:03:11.020Z,98148.81
2023-08-28T15:06:12.979Z,98155.22
2023-08-28T15:09:14.974Z,98145.38
2023-08-28T15:12:16.819Z,98148.31
2023-08-28T15:15:19.015Z,98147.25
2023-08-28T15:18:21.230Z,98147.50
2023-08-28T15:21:23.400Z,98156.56
2023-08-28T15:24:25.463Z,98150.06
2023-08-28T15:27:27.448Z,98145.81
2023-08-28T15:30:31.121Z,98142.56
2023-08-28T15:33:33.209Z,98141.22
2023-08-28T15:36:35.266Z,98134.00
2023-08-28T15:39:37.158Z,98135.13
2023-08-28T15:42:39.109Z,98131.94
2023-08-28T15:45:52.677Z,98134.91
2023-08-28T15:48:54.817Z,98128.88
2023-08-28T15:51:56.727Z,98127.59
2023-08-28T15:54:58.743Z,98120.16
2023-08-28T15:58:00.600Z,98124.19
2023-08-28T16:01:02.644Z,98121.34
2023-08-28T16:04:05.222Z,98128.03
2023-08-28T16:07:08.161Z,98121.34
2023-08-28T16:10:10.425Z,98124.13
2023-08-28T16:13:12.526Z,98108.09
2023-08-28T16:16:14.416Z,98112.66
2023-08-28T16:19:16.597Z,98103.88
2023-08-28T16:22:18.523Z,98107.69
2023-08-28T16:29:15.250Z,98107.72
2023-08-28T16:32:17.155Z,98107.22
2023-08-28T16:35:19.337Z,98111.50
2023-08-28T16:38:21.183Z,98102.13
2023-08-28T16:41:23.313Z,98093.09
2023-08-28T16:44:25.565Z,98094.16
2023-08-28T16:47:27.680Z,98098.94
2023-08-28T16:50:29.666Z,98092.47
2023-08-28T16:53:31.566Z,98093.53
2023-08-28T16:56:33.463Z,98083.34
2023-08-28T16:59:35.397Z,98084.38
2023-08-28T17:02:37.440Z,98091.81
2023-08-28T17:05:39.356Z,98097.06
2023-08-28T17:08:41.288Z,98099.16
2023-08-28T17:11:43.253Z,98092.44
2023-08-28T17:14:45.095Z,98090.53
2023-08-28T17:17:46.971Z,98090.72
2023-08-28T17:20:49.270Z,98075.97
2023-08-28T17:23:51.235Z,98079.16
2023-08-28T17:26:53.200Z,98080.16
2023-08-28T17:33:11.444Z,98088.06
2023-08-28T17:36:13.339Z,98081.59
2023-08-28T17:39:25.049Z,98094.34
2023-08-28T17:42:27.143Z,98086.84
2023-08-28T17:45:29.155Z,98088.44
2023-08-28T17:48:31.016Z,98088.44
2023-08-28T17:51:34.533Z,98082.00
2023-08-28T17:54:38.535Z,98094.25
2023-08-28T17:57:40.749Z,98091.28
2023-08-28T18:00:43.273Z,98086.47
2023-08-28T18:03:45.396Z,98087.75
2023-08-28T18:06:47.689Z,98084.94
2023-08-28T18:09:49.535Z,98090.72
2023-08-28T18:12:51.489Z,98092.19
2023-08-28T18:15:53.464Z,98087.53
2023-08-28T18:18:57.743Z,98095.28
2023-08-28T18:21:59.928Z,98102.34
2023-08-28T18:25:04.947Z,98088.13
2023-08-28T18:28:09.943Z,98089.22
2023-08-28T18:31:13.777Z,98082.22
2023-08-28T18:34:18.793Z,98089.81
2023-08-28T18:37:20.678Z,98081.78
2023-08-28T18:40:23.415Z,98084.13
2023-08-28T18:43:25.650Z,98081.66
2023-08-28T18:46:27.686Z,98087.75
2023-08-28T18:49:29.610Z,98077.28
2023-08-28T18:52:31.631Z,98078.88
2023-08-28T18:55:33.840Z,98069.63
2023-08-28T18:58:35.764Z,98067.00
2023-08-28T19:01:38.232Z,98066.25
2023-08-28T19:04:43.442Z,98053.66
2023-08-28T19:07:45.739Z,98048.00
2023-08-28T19:10:47.870Z,98042.09
2023-08-28T19:13:50.040Z,98035.69
2023-08-28T19:16:51.865Z,98043.41
2023-08-28T19:20:25.442Z,98045.72
2023-08-28T19:23:27.650Z,98046.50
2023-08-28T19:26:29.992Z,98037.63
2023-08-28T19:29:32.195Z,98044.16
2023-08-28T19:32:42.678Z,98043.28
2023-08-28T19:35:44.734Z,98037.66
2023-08-28T19:38:46.572Z,98042.84
2023-08-28T19:41:48.643Z,98039.41
2023-08-28T19:44:50.542Z,98039.63
2023-08-28T19:47:52.617Z,98037.50
2023-08-28T19:50:54.887Z,98042.06
2023-08-28T19:57:42.705Z,98042.84
2023-08-28T20:00:44.704Z,98049.69
2023-08-28T20:03:46.629Z,98050.59
2023-08-28T20:06:48.611Z,98049.78
2023-08-28T20:09:51.760Z,98055.78
2023-08-28T20:12:53.692Z,98055.53
2023-08-28T20:15:55.831Z,98057.47
2023-08-28T20:18:57.969Z,98066.44
2023-08-28T20:22:00.552Z,98070.13
2023-08-28T20:25:03.344Z,98062.78
2023-08-28T20:28:06.206Z,98050.88
2023-08-28T20:31:08.681Z,98049.78
2023-08-28T20:34:12.502Z,98053.59
2023-08-28T20:37:14.783Z,98047.78
2023-08-28T20:40:16.720Z,98042.19
2023-08-28T20:43:19.041Z,98041.94
2023-08-28T20:46:55.073Z,98041.94
2023-08-28T20:49:57.065Z,98055.56
2023-08-28T20:52:59.080Z,98061.81
2023-08-28T20:56:01.178Z,98068.97
2023-08-28T20:59:03.209Z,98072.19
2023-08-28T21:02:05.152Z,98071.56
2023-08-28T21:05:07.405Z,98069.88
2023-08-28T21:08:09.435Z,98079.53
2023-08-28T21:11:11.804Z,98090.59
2023-08-28T21:14:59.350Z,98085.63
2023-08-28T21:18:01.404Z,98092.81
2023-08-28T21:21:04.326Z,98086.34
2023-08-28T21:24:06.904Z,98086.03
2023-08-28T21:27:08.827Z,98080.66
2023-08-28T21:30:11.298Z,98077.88
2023-08-28T21:33:13.285Z,98079.41
2023-08-28T21:36:15.271Z,98086.06
2023-08-28T21:39:17.158Z,98094.25
2023-08-28T21:42:19.764Z,98095.63
2023-08-28T21:45:21.683Z,98088.38
2023-08-28T21:48:28.804Z,98089.97
2023-08-28T21:51:49.310Z,98092.84
2023-08-28T21:55:09.622Z,98084.78
2023-08-28T21:58:30.000Z,98081.78
2023-08-28T22:01:50.476Z,98073.28
2023-08-28T22:05:10.902Z,98081.09
2023-08-28T22:08:13.613Z,98075.81
2023-08-28T22:11:38.006Z,98085.88
2023-08-28T22:14:49.958Z,98084.94
2023-08-28T22:21:37.694Z,98071.91
2023-08-28T22:24:39.662Z,98075.16
2023-08-28T22:27:41.632Z,98062.84
2023-08-28T22:30:43.956Z,98052.75
2023-08-28T22:33:45.856Z,98051.59
2023-08-28T22:36:47.810Z,98053.00
2023-08-28T22:39:49.780Z,98052.41
2023-08-28T22:42:51.827Z,98054.22
2023-08-28T22:45:53.812Z,98054.22
2023-08-28T22:48:55.675Z,98066.19
2023-08-28T22:51:57.583Z,98058.06
2023-08-28T22:54:59.499Z,98045.81
2023-08-28T22:58:02.398Z,98053.28
2023-08-28T23:01:05.476Z,98059.06
2023-08-28T23:04:08.500Z,98059.06
2023-08-28T23:07:10.372Z,98055.84
2023-08-28T23:10:13.868Z,98055.09
2023-08-28T23:13:15.814Z,98064.09
2023-08-28T23:16:17.799Z,98065.50
2023-08-28T23:19:20.084Z,98054.34
2023-08-28T23:22:22.060Z,98056.78
2023-08-28T23:25:24.039Z,98068.91
2023-08-28T23:28:26.260Z,98073.63
2023-08-28T23:31:28.261Z,98074.44
2023-08-28T23:34:30.324Z,98060.06
2023-08-28T23:37:32.274Z,98068.22
2023-08-28T23:40:34.280Z,98070.72
2023-08-28T23:43:36.286Z,98072.09
2023-08-28T23:46:38.184Z,98066.56
2023-08-28T23:49:40.255Z,98073.06
2023-08-28T23:52:42.213Z,98067.81
2023-08-28T23:55:44.140Z,98062.53
2023-08-28T23:58:45.965Z,98066.19
